Dyer, Arkansas
Current Conditions -  °F | °C
As of 2:53 AM on Monday 22 Dec 2014 (Local Time) from KFSM Reporting Station
Overcast Overcast  
Wind Chill: 42°   Ceiling: 2700
Heat Index: 46°   Visibility: 8mi
Dew Point: 43°   Wind: 8mph
Humidity: 89%   Direction: 80°E
Pressure: 29.71"   Gusts: NA
Location:  35.49°N, 94.14°W
Report Text: KFSM 220853Z AUTO 08007KT 8SM BKN027 OVC033 08/06 A2971 RMK AO2 SLP061 T00780061 58018
Loading
Personal Weather Stations






























Interactive Weather Map New forecast layout! Learn more

10-Day Weather Forecast

Advertisements
Track Severe Weather on mobile